Terminal Aerodrome Forecast
Issued by NWS Spokane, WA

Home | Current Version | Previous Version | Text Only | Print | Product List | Glossary On
Versions: 1 2 3 4 5 6 7 8 9 10 11 12 13 14 15 16 17 18
000
FTUS46 KOTX 052326
TAFGEG
TAF
KGEG 052326Z 0600/0624 33007KT P6SM SCT060 SCT120 BKN250
     FM060300 35006KT P6SM FEW060 BKN200
     FM061000 03011KT P6SM BKN150
     FM061800 05017KT P6SM SCT150=

USA.gov is the U.S. government's official web portal to all federal, state and local government web resources and services.